Terminal Aerodrome Forecast
Issued by NWS Shreveport, LA

Home | Current Version | Previous Version | Text Only | Print | Product List | Glossary On
Versions: 1 2 3 4 5 6 7 8 9 10 11 12 13 14 15 16 17
000
FTUS44 KSHV 252341
TAFSHV
TAF
KSHV 252341Z 2600/2624 19008G17KT P6SM FEW045 SCT130 BKN230
     FM261200 16007KT P6SM BKN015
     FM261600 16011KT P6SM BKN035
     FM262100 18011KT P6SM VCTS BKN050CB=

USA.gov is the U.S. government's official web portal to all federal, state and local government web resources and services.